sensor_id;sensor_type;location;lat;lon;timestamp;P1;durP1;ratioP1;P2;durP2;ratioP2
51184;SDS011;37248;59.350;18.050;2022-10-23T00:00:26;9.17;;;4.37;;
51184;SDS011;37248;59.350;18.050;2022-10-23T00:02:52;10.83;;;4.80;;
51184;SDS011;37248;59.350;18.050;2022-10-23T00:05:19;8.57;;;3.80;;
51184;SDS011;37248;59.350;18.050;2022-10-23T00:07:47;9.67;;;4.00;;
51184;SDS011;37248;59.350;18.050;2022-10-23T00:10:13;13.05;;;3.95;;
51184;SDS011;37248;59.350;18.050;2022-10-23T00:12:38;8.43;;;4.00;;
51184;SDS011;37248;59.350;18.050;2022-10-23T00:15:04;13.50;;;4.00;;
51184;SDS011;37248;59.350;18.050;2022-10-23T00:17:29;9.70;;;3.63;;
51184;SDS011;37248;59.350;18.050;2022-10-23T00:19:56;7.13;;;3.60;;
51184;SDS011;37248;59.350;18.050;2022-10-23T00:22:22;8.37;;;3.63;;
51184;SDS011;37248;59.350;18.050;2022-10-23T00:24:47;10.23;;;3.70;;
51184;SDS011;37248;59.350;18.050;2022-10-23T00:27:12;7.75;;;3.60;;
51184;SDS011;37248;59.350;18.050;2022-10-23T00:29:41;6.77;;;3.30;;
51184;SDS011;37248;59.350;18.050;2022-10-23T00:32:07;11.48;;;3.38;;
51184;SDS011;37248;59.350;18.050;2022-10-23T00:34:33;11.87;;;3.63;;
51184;SDS011;37248;59.350;18.050;2022-10-23T00:36:58;9.73;;;3.57;;
51184;SDS011;37248;59.350;18.050;2022-10-23T00:39:23;8.87;;;3.40;;
51184;SDS011;37248;59.350;18.050;2022-10-23T00:41:48;11.33;;;3.33;;
51184;SDS011;37248;59.350;18.050;2022-10-23T00:46:42;13.95;;;2.85;;
51184;SDS011;37248;59.350;18.050;2022-10-23T00:49:09;10.23;;;3.53;;
51184;SDS011;37248;59.350;18.050;2022-10-23T00:51:35;11.77;;;3.40;;
51184;SDS011;37248;59.350;18.050;2022-10-23T00:54:02;15.90;;;3.20;;
51184;SDS011;37248;59.350;18.050;2022-10-23T00:56:29;7.75;;;2.70;;
51184;SDS011;37248;59.350;18.050;2022-10-23T00:58:55;9.80;;;3.00;;
51184;SDS011;37248;59.350;18.050;2022-10-23T01:01:21;6.63;;;2.40;;
51184;SDS011;37248;59.350;18.050;2022-10-23T01:03:46;10.27;;;3.03;;
51184;SDS011;37248;59.350;18.050;2022-10-23T01:06:14;11.77;;;3.03;;
51184;SDS011;37248;59.350;18.050;2022-10-23T01:08:51;12.18;;;2.88;;
51184;SDS011;37248;59.350;18.050;2022-10-23T01:13:54;8.07;;;2.60;;
51184;SDS011;37248;59.350;18.050;2022-10-23T01:16:28;10.80;;;2.50;;
51184;SDS011;37248;59.350;18.050;2022-10-23T01:21:26;5.87;;;2.03;;
51184;SDS011;37248;59.350;18.050;2022-10-23T01:29:07;6.78;;;2.45;;
51184;SDS011;37248;59.350;18.050;2022-10-23T01:31:38;5.07;;;2.37;;
51184;SDS011;37248;59.350;18.050;2022-10-23T01:34:07;6.55;;;2.53;;
51184;SDS011;37248;59.350;18.050;2022-10-23T01:36:34;6.70;;;2.38;;
51184;SDS011;37248;59.350;18.050;2022-10-23T01:39:03;5.85;;;2.35;;
51184;SDS011;37248;59.350;18.050;2022-10-23T01:41:53;4.53;;;1.88;;
51184;SDS011;37248;59.350;18.050;2022-10-23T01:44:27;7.28;;;2.30;;
51184;SDS011;37248;59.350;18.050;2022-10-23T01:46:53;4.97;;;1.80;;
51184;SDS011;37248;59.350;18.050;2022-10-23T01:49:19;4.70;;;1.90;;
51184;SDS011;37248;59.350;18.050;2022-10-23T01:51:46;7.03;;;2.00;;
51184;SDS011;37248;59.350;18.050;2022-10-23T01:54:13;8.77;;;2.03;;
51184;SDS011;37248;59.350;18.050;2022-10-23T01:56:41;6.03;;;2.17;;
51184;SDS011;37248;59.350;18.050;2022-10-23T01:59:08;7.20;;;2.03;;
51184;SDS011;37248;59.350;18.050;2022-10-23T02:01:34;5.80;;;1.77;;
51184;SDS011;37248;59.350;18.050;2022-10-23T02:04:02;4.10;;;1.88;;
51184;SDS011;37248;59.350;18.050;2022-10-23T02:06:28;4.50;;;1.67;;
51184;SDS011;37248;59.350;18.050;2022-10-23T02:08:53;6.83;;;1.77;;
51184;SDS011;37248;59.350;18.050;2022-10-23T02:11:19;4.37;;;1.67;;
51184;SDS011;37248;59.350;18.050;2022-10-23T02:16:31;9.02;;;1.75;;
51184;SDS011;37248;59.350;18.050;2022-10-23T02:24:19;3.78;;;1.80;;
51184;SDS011;37248;59.350;18.050;2022-10-23T02:26:51;5.35;;;1.80;;
51184;SDS011;37248;59.350;18.050;2022-10-23T02:31:46;3.45;;;1.83;;
51184;SDS011;37248;59.350;18.050;2022-10-23T02:34:11;3.07;;;1.47;;
51184;SDS011;37248;59.350;18.050;2022-10-23T02:36:37;6.07;;;1.80;;
51184;SDS011;37248;59.350;18.050;2022-10-23T02:39:06;4.00;;;1.50;;
51184;SDS011;37248;59.350;18.050;2022-10-23T02:41:42;7.10;;;1.73;;
51184;SDS011;37248;59.350;18.050;2022-10-23T02:44:12;4.30;;;1.30;;
51184;SDS011;37248;59.350;18.050;2022-10-23T02:46:50;5.18;;;1.75;;
51184;SDS011;37248;59.350;18.050;2022-10-23T02:51:48;3.35;;;1.60;;
51184;SDS011;37248;59.350;18.050;2022-10-23T02:56:58;3.95;;;1.48;;
51184;SDS011;37248;59.350;18.050;2022-10-23T02:59:36;7.30;;;1.90;;
51184;SDS011;37248;59.350;18.050;2022-10-23T03:02:14;8.75;;;2.05;;
51184;SDS011;37248;59.350;18.050;2022-10-23T03:04:42;6.47;;;1.63;;
51184;SDS011;37248;59.350;18.050;2022-10-23T03:07:14;8.30;;;1.70;;
51184;SDS011;37248;59.350;18.050;2022-10-23T03:09:39;4.20;;;1.92;;
51184;SDS011;37248;59.350;18.050;2022-10-23T03:12:04;5.47;;;1.87;;
51184;SDS011;37248;59.350;18.050;2022-10-23T03:14:30;5.40;;;1.70;;
51184;SDS011;37248;59.350;18.050;2022-10-23T03:16:55;4.63;;;1.90;;
51184;SDS011;37248;59.350;18.050;2022-10-23T03:19:20;7.63;;;1.90;;
51184;SDS011;37248;59.350;18.050;2022-10-23T03:21:48;6.47;;;1.70;;
51184;SDS011;37248;59.350;18.050;2022-10-23T03:24:14;5.97;;;1.75;;
51184;SDS011;37248;59.350;18.050;2022-10-23T03:26:39;3.70;;;1.50;;
51184;SDS011;37248;59.350;18.050;2022-10-23T03:29:04;4.70;;;1.70;;
51184;SDS011;37248;59.350;18.050;2022-10-23T03:31:29;3.87;;;1.50;;
51184;SDS011;37248;59.350;18.050;2022-10-23T03:33:55;4.20;;;1.70;;
51184;SDS011;37248;59.350;18.050;2022-10-23T03:36:20;5.97;;;1.57;;
51184;SDS011;37248;59.350;18.050;2022-10-23T03:38:45;2.80;;;1.50;;
51184;SDS011;37248;59.350;18.050;2022-10-23T03:41:10;2.53;;;1.93;;
51184;SDS011;37248;59.350;18.050;2022-10-23T03:43:36;3.57;;;1.50;;
51184;SDS011;37248;59.350;18.050;2022-10-23T03:46:01;3.27;;;1.90;;
51184;SDS011;37248;59.350;18.050;2022-10-23T03:48:27;2.17;;;1.37;;
51184;SDS011;37248;59.350;18.050;2022-10-23T03:50:52;3.40;;;1.57;;
51184;SDS011;37248;59.350;18.050;2022-10-23T03:53:18;2.25;;;1.48;;
51184;SDS011;37248;59.350;18.050;2022-10-23T03:55:43;4.03;;;1.73;;
51184;SDS011;37248;59.350;18.050;2022-10-23T03:58:09;5.20;;;1.73;;
51184;SDS011;37248;59.350;18.050;2022-10-23T04:00:34;4.32;;;1.65;;
51184;SDS011;37248;59.350;18.050;2022-10-23T04:03:00;3.15;;;1.83;;
51184;SDS011;37248;59.350;18.050;2022-10-23T04:05:25;5.70;;;2.10;;
51184;SDS011;37248;59.350;18.050;2022-10-23T04:07:50;5.93;;;1.67;;
51184;SDS011;37248;59.350;18.050;2022-10-23T04:10:15;7.90;;;2.30;;
51184;SDS011;37248;59.350;18.050;2022-10-23T04:12:41;6.20;;;1.80;;
51184;SDS011;37248;59.350;18.050;2022-10-23T04:15:06;5.22;;;1.65;;
51184;SDS011;37248;59.350;18.050;2022-10-23T04:17:32;6.15;;;2.20;;
51184;SDS011;37248;59.350;18.050;2022-10-23T04:19:57;5.33;;;2.17;;
51184;SDS011;37248;59.350;18.050;2022-10-23T04:22:26;6.80;;;2.00;;
51184;SDS011;37248;59.350;18.050;2022-10-23T04:24:51;8.37;;;2.00;;
51184;SDS011;37248;59.350;18.050;2022-10-23T04:27:16;15.03;;;2.00;;
51184;SDS011;37248;59.350;18.050;2022-10-23T04:29:41;6.07;;;2.08;;
51184;SDS011;37248;59.350;18.050;2022-10-23T04:32:07;7.70;;;2.33;;
51184;SDS011;37248;59.350;18.050;2022-10-23T04:34:32;5.17;;;1.90;;
51184;SDS011;37248;59.350;18.050;2022-10-23T04:36:57;8.27;;;1.90;;
51184;SDS011;37248;59.350;18.050;2022-10-23T04:39:22;11.17;;;2.20;;
51184;SDS011;37248;59.350;18.050;2022-10-23T04:41:48;5.33;;;2.27;;
51184;SDS011;37248;59.350;18.050;2022-10-23T04:44:13;8.03;;;2.03;;
51184;SDS011;37248;59.350;18.050;2022-10-23T04:46:38;8.10;;;2.17;;
51184;SDS011;37248;59.350;18.050;2022-10-23T04:49:04;9.13;;;2.10;;
51184;SDS011;37248;59.350;18.050;2022-10-23T04:51:29;11.38;;;2.20;;
51184;SDS011;37248;59.350;18.050;2022-10-23T04:53:54;11.70;;;2.03;;
51184;SDS011;37248;59.350;18.050;2022-10-23T04:56:19;12.43;;;2.58;;
51184;SDS011;37248;59.350;18.050;2022-10-23T04:58:48;10.50;;;2.20;;
51184;SDS011;37248;59.350;18.050;2022-10-23T05:01:13;10.43;;;2.63;;
51184;SDS011;37248;59.350;18.050;2022-10-23T05:03:38;11.10;;;2.00;;
51184;SDS011;37248;59.350;18.050;2022-10-23T05:06:04;13.93;;;2.13;;
51184;SDS011;37248;59.350;18.050;2022-10-23T05:08:30;9.02;;;2.00;;
51184;SDS011;37248;59.350;18.050;2022-10-23T05:10:55;11.87;;;2.40;;
51184;SDS011;37248;59.350;18.050;2022-10-23T05:13:20;10.40;;;2.17;;
51184;SDS011;37248;59.350;18.050;2022-10-23T05:15:48;9.87;;;2.40;;
51184;SDS011;37248;59.350;18.050;2022-10-23T05:18:19;8.55;;;2.55;;
51184;SDS011;37248;59.350;18.050;2022-10-23T05:20:46;12.40;;;2.30;;
51184;SDS011;37248;59.350;18.050;2022-10-23T05:23:12;9.95;;;2.42;;
51184;SDS011;37248;59.350;18.050;2022-10-23T05:25:38;9.32;;;2.22;;
51184;SDS011;37248;59.350;18.050;2022-10-23T05:28:04;10.35;;;2.17;;
51184;SDS011;37248;59.350;18.050;2022-10-23T05:30:29;14.30;;;1.90;;
51184;SDS011;37248;59.350;18.050;2022-10-23T05:32:58;7.07;;;1.50;;
51184;SDS011;37248;59.350;18.050;2022-10-23T05:35:23;7.07;;;2.05;;
51184;SDS011;37248;59.350;18.050;2022-10-23T05:37:48;6.40;;;1.73;;
51184;SDS011;37248;59.350;18.050;2022-10-23T05:40:15;5.50;;;1.80;;
51184;SDS011;37248;59.350;18.050;2022-10-23T05:42:41;7.00;;;2.00;;
51184;SDS011;37248;59.350;18.050;2022-10-23T05:45:06;5.85;;;1.63;;
51184;SDS011;37248;59.350;18.050;2022-10-23T05:47:31;4.67;;;1.57;;
51184;SDS011;37248;59.350;18.050;2022-10-23T05:49:56;7.43;;;1.77;;
51184;SDS011;37248;59.350;18.050;2022-10-23T05:52:22;5.33;;;1.87;;
51184;SDS011;37248;59.350;18.050;2022-10-23T05:54:49;6.28;;;1.77;;
51184;SDS011;37248;59.350;18.050;2022-10-23T05:57:14;5.80;;;1.70;;
51184;SDS011;37248;59.350;18.050;2022-10-23T05:59:43;3.63;;;1.60;;
51184;SDS011;37248;59.350;18.050;2022-10-23T06:02:08;5.45;;;1.60;;
51184;SDS011;37248;59.350;18.050;2022-10-23T06:04:33;4.57;;;1.50;;
51184;SDS011;37248;59.350;18.050;2022-10-23T06:06:59;5.13;;;1.73;;
51184;SDS011;37248;59.350;18.050;2022-10-23T06:09:24;3.70;;;1.40;;
51184;SDS011;37248;59.350;18.050;2022-10-23T06:11:49;3.27;;;1.57;;
51184;SDS011;37248;59.350;18.050;2022-10-23T06:14:15;4.20;;;1.43;;
51184;SDS011;37248;59.350;18.050;2022-10-23T06:16:40;4.17;;;1.30;;
51184;SDS011;37248;59.350;18.050;2022-10-23T06:19:05;4.70;;;1.60;;
51184;SDS011;37248;59.350;18.050;2022-10-23T06:21:35;5.50;;;1.88;;
51184;SDS011;37248;59.350;18.050;2022-10-23T06:24:00;5.03;;;1.50;;
51184;SDS011;37248;59.350;18.050;2022-10-23T06:26:25;3.93;;;1.47;;
51184;SDS011;37248;59.350;18.050;2022-10-23T06:28:51;3.50;;;1.30;;
51184;SDS011;37248;59.350;18.050;2022-10-23T06:31:16;4.37;;;1.43;;
51184;SDS011;37248;59.350;18.050;2022-10-23T06:33:43;3.35;;;1.38;;
51184;SDS011;37248;59.350;18.050;2022-10-23T06:36:09;2.63;;;1.25;;
51184;SDS011;37248;59.350;18.050;2022-10-23T06:38:35;2.00;;;1.00;;
51184;SDS011;37248;59.350;18.050;2022-10-23T06:41:04;1.70;;;1.27;;
51184;SDS011;37248;59.350;18.050;2022-10-23T06:43:29;4.40;;;1.40;;
51184;SDS011;37248;59.350;18.050;2022-10-23T06:45:55;2.40;;;1.30;;
51184;SDS011;37248;59.350;18.050;2022-10-23T06:48:20;2.57;;;1.07;;
51184;SDS011;37248;59.350;18.050;2022-10-23T06:50:46;2.70;;;1.37;;
51184;SDS011;37248;59.350;18.050;2022-10-23T06:53:11;4.28;;;1.23;;
51184;SDS011;37248;59.350;18.050;2022-10-23T06:55:37;2.80;;;1.10;;
51184;SDS011;37248;59.350;18.050;2022-10-23T06:58:04;1.77;;;1.02;;
51184;SDS011;37248;59.350;18.050;2022-10-23T07:00:34;3.03;;;1.20;;
51184;SDS011;37248;59.350;18.050;2022-10-23T07:02:59;3.37;;;1.40;;
51184;SDS011;37248;59.350;18.050;2022-10-23T07:05:24;2.47;;;1.20;;
51184;SDS011;37248;59.350;18.050;2022-10-23T07:07:50;4.63;;;1.07;;
51184;SDS011;37248;59.350;18.050;2022-10-23T07:10:15;3.80;;;1.40;;
51184;SDS011;37248;59.350;18.050;2022-10-23T07:12:40;2.73;;;1.37;;
51184;SDS011;37248;59.350;18.050;2022-10-23T07:15:06;2.40;;;1.20;;
51184;SDS011;37248;59.350;18.050;2022-10-23T07:17:31;4.47;;;1.23;;
51184;SDS011;37248;59.350;18.050;2022-10-23T07:19:57;3.97;;;1.37;;
51184;SDS011;37248;59.350;18.050;2022-10-23T07:22:22;15.00;;;2.07;;
51184;SDS011;37248;59.350;18.050;2022-10-23T07:24:47;6.97;;;1.60;;
51184;SDS011;37248;59.350;18.050;2022-10-23T07:27:16;8.90;;;1.60;;
51184;SDS011;37248;59.350;18.050;2022-10-23T07:29:41;10.80;;;1.52;;
51184;SDS011;37248;59.350;18.050;2022-10-23T07:32:06;6.17;;;1.80;;
51184;SDS011;37248;59.350;18.050;2022-10-23T07:34:33;21.20;;;2.40;;
51184;SDS011;37248;59.350;18.050;2022-10-23T07:37:00;9.18;;;1.88;;
51184;SDS011;37248;59.350;18.050;2022-10-23T07:39:26;13.82;;;1.73;;
51184;SDS011;37248;59.350;18.050;2022-10-23T07:41:51;15.23;;;2.30;;
51184;SDS011;37248;59.350;18.050;2022-10-23T07:44:16;8.43;;;1.80;;
51184;SDS011;37248;59.350;18.050;2022-10-23T07:46:41;13.00;;;2.20;;
51184;SDS011;37248;59.350;18.050;2022-10-23T07:49:08;10.77;;;2.23;;
51184;SDS011;37248;59.350;18.050;2022-10-23T07:51:34;11.25;;;2.45;;
51184;SDS011;37248;59.350;18.050;2022-10-23T07:53:59;16.67;;;2.47;;
51184;SDS011;37248;59.350;18.050;2022-10-23T07:56:26;15.07;;;2.20;;
51184;SDS011;37248;59.350;18.050;2022-10-23T07:58:53;15.03;;;2.57;;
51184;SDS011;37248;59.350;18.050;2022-10-23T08:01:26;15.87;;;1.70;;
51184;SDS011;37248;59.350;18.050;2022-10-23T08:03:53;11.77;;;1.85;;
51184;SDS011;37248;59.350;18.050;2022-10-23T08:06:18;7.03;;;1.93;;
51184;SDS011;37248;59.350;18.050;2022-10-23T08:08:43;10.63;;;1.63;;
51184;SDS011;37248;59.350;18.050;2022-10-23T08:11:10;9.23;;;1.80;;
51184;SDS011;37248;59.350;18.050;2022-10-23T08:13:36;13.80;;;2.08;;
51184;SDS011;37248;59.350;18.050;2022-10-23T08:16:01;8.60;;;2.00;;
51184;SDS011;37248;59.350;18.050;2022-10-23T08:18:26;7.30;;;1.73;;
51184;SDS011;37248;59.350;18.050;2022-10-23T08:20:52;5.17;;;1.53;;
51184;SDS011;37248;59.350;18.050;2022-10-23T08:23:18;3.63;;;1.40;;
51184;SDS011;37248;59.350;18.050;2022-10-23T08:25:46;5.93;;;1.80;;
51184;SDS011;37248;59.350;18.050;2022-10-23T08:28:11;6.33;;;1.30;;
51184;SDS011;37248;59.350;18.050;2022-10-23T08:30:37;7.17;;;1.23;;
51184;SDS011;37248;59.350;18.050;2022-10-23T08:33:03;4.90;;;1.43;;
51184;SDS011;37248;59.350;18.050;2022-10-23T08:35:29;8.20;;;1.85;;
51184;SDS011;37248;59.350;18.050;2022-10-23T08:37:54;8.97;;;1.60;;
51184;SDS011;37248;59.350;18.050;2022-10-23T08:40:22;5.03;;;1.43;;
51184;SDS011;37248;59.350;18.050;2022-10-23T08:45:32;7.38;;;1.60;;
51184;SDS011;37248;59.350;18.050;2022-10-23T08:48:00;5.10;;;1.33;;
51184;SDS011;37248;59.350;18.050;2022-10-23T08:50:48;5.07;;;1.80;;
51184;SDS011;37248;59.350;18.050;2022-10-23T08:53:19;7.05;;;1.48;;
51184;SDS011;37248;59.350;18.050;2022-10-23T08:55:55;4.97;;;1.60;;
51184;SDS011;37248;59.350;18.050;2022-10-23T08:58:33;5.27;;;1.63;;
51184;SDS011;37248;59.350;18.050;2022-10-23T09:03:51;4.35;;;1.65;;
51184;SDS011;37248;59.350;18.050;2022-10-23T09:06:24;5.80;;;1.50;;
51184;SDS011;37248;59.350;18.050;2022-10-23T09:11:35;7.57;;;1.85;;
51184;SDS011;37248;59.350;18.050;2022-10-23T09:16:36;6.18;;;1.60;;
51184;SDS011;37248;59.350;18.050;2022-10-23T09:19:14;3.42;;;1.70;;
51184;SDS011;37248;59.350;18.050;2022-10-23T09:21:40;5.93;;;1.60;;
51184;SDS011;37248;59.350;18.050;2022-10-23T09:24:10;5.40;;;1.20;;
51184;SDS011;37248;59.350;18.050;2022-10-23T09:26:35;4.57;;;1.40;;
51184;SDS011;37248;59.350;18.050;2022-10-23T09:29:16;4.70;;;1.50;;
51184;SDS011;37248;59.350;18.050;2022-10-23T09:31:47;3.10;;;1.45;;
51184;SDS011;37248;59.350;18.050;2022-10-23T09:34:17;8.15;;;1.45;;
51184;SDS011;37248;59.350;18.050;2022-10-23T09:36:47;8.88;;;1.50;;
51184;SDS011;37248;59.350;18.050;2022-10-23T09:39:19;5.03;;;1.17;;
51184;SDS011;37248;59.350;18.050;2022-10-23T09:41:45;4.40;;;1.70;;
51184;SDS011;37248;59.350;18.050;2022-10-23T09:44:21;4.97;;;1.37;;
51184;SDS011;37248;59.350;18.050;2022-10-23T09:46:51;5.78;;;1.30;;
51184;SDS011;37248;59.350;18.050;2022-10-23T09:49:19;10.17;;;1.93;;
51184;SDS011;37248;59.350;18.050;2022-10-23T09:51:53;9.38;;;2.00;;
51184;SDS011;37248;59.350;18.050;2022-10-23T09:54:18;5.85;;;1.60;;
51184;SDS011;37248;59.350;18.050;2022-10-23T09:56:47;5.97;;;1.60;;
51184;SDS011;37248;59.350;18.050;2022-10-23T10:01:46;4.97;;;1.60;;
51184;SDS011;37248;59.350;18.050;2022-10-23T10:04:12;6.80;;;1.95;;
51184;SDS011;37248;59.350;18.050;2022-10-23T10:06:37;6.77;;;1.83;;
51184;SDS011;37248;59.350;18.050;2022-10-23T10:09:04;27.50;;;3.70;;
51184;SDS011;37248;59.350;18.050;2022-10-23T10:12:14;38.72;;;5.65;;
51184;SDS011;37248;59.350;18.050;2022-10-23T10:29:11;17.35;;;2.50;;
51184;SDS011;37248;59.350;18.050;2022-10-23T10:36:46;28.67;;;4.73;;
51184;SDS011;37248;59.350;18.050;2022-10-23T10:39:22;28.90;;;5.05;;
51184;SDS011;37248;59.350;18.050;2022-10-23T10:47:10;23.17;;;4.10;;
51184;SDS011;37248;59.350;18.050;2022-10-23T10:57:23;26.37;;;4.43;;
51184;SDS011;37248;59.350;18.050;2022-10-23T10:59:51;20.27;;;3.73;;
51184;SDS011;37248;59.350;18.050;2022-10-23T11:02:20;16.83;;;3.40;;
51184;SDS011;37248;59.350;18.050;2022-10-23T11:04:51;26.30;;;3.65;;
51184;SDS011;37248;59.350;18.050;2022-10-23T11:07:19;14.80;;;3.30;;
51184;SDS011;37248;59.350;18.050;2022-10-23T11:09:46;13.18;;;3.00;;
51184;SDS011;37248;59.350;18.050;2022-10-23T11:12:15;13.80;;;3.20;;
51184;SDS011;37248;59.350;18.050;2022-10-23T11:14:42;10.10;;;3.03;;
51184;SDS011;37248;59.350;18.050;2022-10-23T11:17:13;15.40;;;2.90;;
51184;SDS011;37248;59.350;18.050;2022-10-23T11:19:42;13.03;;;2.97;;
51184;SDS011;37248;59.350;18.050;2022-10-23T11:22:18;12.32;;;3.08;;
51184;SDS011;37248;59.350;18.050;2022-10-23T11:24:49;11.95;;;2.67;;
51184;SDS011;37248;59.350;18.050;2022-10-23T11:27:25;13.73;;;2.40;;
51184;SDS011;37248;59.350;18.050;2022-10-23T11:30:11;13.18;;;2.65;;
51184;SDS011;37248;59.350;18.050;2022-10-23T11:38:17;11.93;;;2.53;;
51184;SDS011;37248;59.350;18.050;2022-10-23T11:40:46;12.35;;;2.40;;
51184;SDS011;37248;59.350;18.050;2022-10-23T11:43:13;8.10;;;2.25;;
51184;SDS011;37248;59.350;18.050;2022-10-23T11:45:49;10.07;;;2.00;;
51184;SDS011;37248;59.350;18.050;2022-10-23T11:50:58;10.52;;;2.67;;
51184;SDS011;37248;59.350;18.050;2022-10-23T11:55:56;8.45;;;2.00;;
51184;SDS011;37248;59.350;18.050;2022-10-23T11:58:22;7.75;;;2.25;;
51184;SDS011;37248;59.350;18.050;2022-10-23T12:00:52;7.10;;;1.90;;
51184;SDS011;37248;59.350;18.050;2022-10-23T12:03:19;7.10;;;1.90;;
51184;SDS011;37248;59.350;18.050;2022-10-23T12:05:46;6.78;;;2.15;;
51184;SDS011;37248;59.350;18.050;2022-10-23T12:08:21;5.55;;;1.63;;
51184;SDS011;37248;59.350;18.050;2022-10-23T12:10:47;6.93;;;1.80;;
51184;SDS011;37248;59.350;18.050;2022-10-23T12:13:41;7.63;;;1.92;;
51184;SDS011;37248;59.350;18.050;2022-10-23T12:16:07;6.88;;;1.60;;
51184;SDS011;37248;59.350;18.050;2022-10-23T12:18:32;5.40;;;1.60;;
51184;SDS011;37248;59.350;18.050;2022-10-23T12:20:58;5.20;;;1.67;;
51184;SDS011;37248;59.350;18.050;2022-10-23T12:33:41;4.47;;;1.50;;
51184;SDS011;37248;59.350;18.050;2022-10-23T12:36:17;3.97;;;1.80;;
51184;SDS011;37248;59.350;18.050;2022-10-23T12:38:46;4.20;;;1.27;;
51184;SDS011;37248;59.350;18.050;2022-10-23T12:41:24;3.75;;;1.30;;
51184;SDS011;37248;59.350;18.050;2022-10-23T12:43:50;3.25;;;1.20;;
51184;SDS011;37248;59.350;18.050;2022-10-23T12:48:52;4.03;;;1.50;;
51184;SDS011;37248;59.350;18.050;2022-10-23T12:51:28;5.07;;;1.27;;
51184;SDS011;37248;59.350;18.050;2022-10-23T12:53:53;5.88;;;1.50;;
51184;SDS011;37248;59.350;18.050;2022-10-23T12:56:19;7.73;;;1.30;;
51184;SDS011;37248;59.350;18.050;2022-10-23T12:58:46;2.17;;;0.95;;
51184;SDS011;37248;59.350;18.050;2022-10-23T13:01:20;5.33;;;1.53;;
51184;SDS011;37248;59.350;18.050;2022-10-23T13:03:46;4.28;;;1.10;;
51184;SDS011;37248;59.350;18.050;2022-10-23T13:06:12;3.30;;;1.10;;
51184;SDS011;37248;59.350;18.050;2022-10-23T13:08:44;3.78;;;1.30;;
51184;SDS011;37248;59.350;18.050;2022-10-23T13:11:13;4.80;;;1.30;;
51184;SDS011;37248;59.350;18.050;2022-10-23T13:13:39;2.92;;;1.35;;
51184;SDS011;37248;59.350;18.050;2022-10-23T13:16:15;3.00;;;1.08;;
51184;SDS011;37248;59.350;18.050;2022-10-23T13:18:41;2.70;;;1.20;;
51184;SDS011;37248;59.350;18.050;2022-10-23T13:21:27;3.20;;;1.13;;
51184;SDS011;37248;59.350;18.050;2022-10-23T13:23:56;4.45;;;1.10;;
51184;SDS011;37248;59.350;18.050;2022-10-23T13:28:46;2.80;;;1.10;;
51184;SDS011;37248;59.350;18.050;2022-10-23T13:36:18;1.65;;;0.85;;
51184;SDS011;37248;59.350;18.050;2022-10-23T13:38:45;2.88;;;0.98;;
51184;SDS011;37248;59.350;18.050;2022-10-23T13:41:18;3.30;;;1.10;;
51184;SDS011;37248;59.350;18.050;2022-10-23T13:43:44;2.97;;;1.00;;
51184;SDS011;37248;59.350;18.050;2022-10-23T13:46:13;2.80;;;1.08;;
51184;SDS011;37248;59.350;18.050;2022-10-23T13:48:39;1.70;;;0.80;;
51184;SDS011;37248;59.350;18.050;2022-10-23T13:54:02;1.45;;;0.85;;
51184;SDS011;37248;59.350;18.050;2022-10-23T13:56:27;3.60;;;1.05;;
51184;SDS011;37248;59.350;18.050;2022-10-23T13:58:55;2.97;;;1.03;;
51184;SDS011;37248;59.350;18.050;2022-10-23T14:01:22;2.15;;;1.00;;
51184;SDS011;37248;59.350;18.050;2022-10-23T14:03:48;1.88;;;0.80;;
51184;SDS011;37248;59.350;18.050;2022-10-23T14:06:13;4.30;;;1.20;;
51184;SDS011;37248;59.350;18.050;2022-10-23T14:08:38;2.83;;;0.80;;
51184;SDS011;37248;59.350;18.050;2022-10-23T14:11:04;3.20;;;0.80;;
51184;SDS011;37248;59.350;18.050;2022-10-23T14:13:29;1.67;;;0.93;;
51184;SDS011;37248;59.350;18.050;2022-10-23T14:15:55;1.52;;;0.85;;
51184;SDS011;37248;59.350;18.050;2022-10-23T14:18:21;1.90;;;0.90;;
51184;SDS011;37248;59.350;18.050;2022-10-23T14:20:46;2.73;;;1.00;;
51184;SDS011;37248;59.350;18.050;2022-10-23T14:23:11;1.80;;;0.88;;
51184;SDS011;37248;59.350;18.050;2022-10-23T14:25:37;2.13;;;1.00;;
51184;SDS011;37248;59.350;18.050;2022-10-23T14:28:02;2.08;;;0.80;;
51184;SDS011;37248;59.350;18.050;2022-10-23T14:30:27;1.23;;;0.70;;
51184;SDS011;37248;59.350;18.050;2022-10-23T14:32:53;1.77;;;0.70;;
51184;SDS011;37248;59.350;18.050;2022-10-23T14:35:18;1.80;;;1.03;;
51184;SDS011;37248;59.350;18.050;2022-10-23T14:37:43;1.67;;;0.87;;
51184;SDS011;37248;59.350;18.050;2022-10-23T14:40:09;2.15;;;0.77;;
51184;SDS011;37248;59.350;18.050;2022-10-23T14:42:34;1.53;;;0.87;;
51184;SDS011;37248;59.350;18.050;2022-10-23T14:45:00;1.90;;;0.87;;
51184;SDS011;37248;59.350;18.050;2022-10-23T14:47:26;1.45;;;0.70;;
51184;SDS011;37248;59.350;18.050;2022-10-23T14:49:52;1.10;;;0.60;;
51184;SDS011;37248;59.350;18.050;2022-10-23T14:52:17;1.23;;;0.80;;
51184;SDS011;37248;59.350;18.050;2022-10-23T14:54:42;3.30;;;0.50;;
51184;SDS011;37248;59.350;18.050;2022-10-23T14:57:08;1.92;;;0.63;;
51184;SDS011;37248;59.350;18.050;2022-10-23T14:59:33;1.63;;;0.80;;
51184;SDS011;37248;59.350;18.050;2022-10-23T15:01:59;2.80;;;0.73;;
51184;SDS011;37248;59.350;18.050;2022-10-23T15:04:24;2.17;;;0.70;;
51184;SDS011;37248;59.350;18.050;2022-10-23T15:06:49;1.63;;;0.60;;
51184;SDS011;37248;59.350;18.050;2022-10-23T15:09:14;7.10;;;1.30;;
51184;SDS011;37248;59.350;18.050;2022-10-23T15:11:40;6.60;;;0.70;;
51184;SDS011;37248;59.350;18.050;2022-10-23T15:14:05;3.20;;;0.73;;
51184;SDS011;37248;59.350;18.050;2022-10-23T15:16:31;3.65;;;0.70;;
51184;SDS011;37248;59.350;18.050;2022-10-23T15:18:56;3.93;;;0.90;;
51184;SDS011;37248;59.350;18.050;2022-10-23T15:21:21;2.67;;;0.70;;
51184;SDS011;37248;59.350;18.050;2022-10-23T15:23:47;3.70;;;0.80;;
51184;SDS011;37248;59.350;18.050;2022-10-23T15:26:18;4.00;;;0.93;;
51184;SDS011;37248;59.350;18.050;2022-10-23T15:28:46;3.60;;;1.00;;
51184;SDS011;37248;59.350;18.050;2022-10-23T15:33:56;6.07;;;1.10;;
51184;SDS011;37248;59.350;18.050;2022-10-23T15:36:22;6.35;;;1.30;;
51184;SDS011;37248;59.350;18.050;2022-10-23T15:38:47;5.33;;;1.43;;
51184;SDS011;37248;59.350;18.050;2022-10-23T15:41:14;5.47;;;1.07;;
51184;SDS011;37248;59.350;18.050;2022-10-23T15:43:39;3.60;;;1.00;;
51184;SDS011;37248;59.350;18.050;2022-10-23T15:46:04;4.10;;;1.00;;
51184;SDS011;37248;59.350;18.050;2022-10-23T15:48:30;3.67;;;1.07;;
51184;SDS011;37248;59.350;18.050;2022-10-23T15:50:55;3.67;;;1.10;;
51184;SDS011;37248;59.350;18.050;2022-10-23T15:53:21;5.30;;;1.50;;
51184;SDS011;37248;59.350;18.050;2022-10-23T15:55:46;5.47;;;1.40;;
51184;SDS011;37248;59.350;18.050;2022-10-23T15:58:11;5.73;;;1.17;;
51184;SDS011;37248;59.350;18.050;2022-10-23T16:00:37;3.87;;;1.10;;
51184;SDS011;37248;59.350;18.050;2022-10-23T16:03:03;4.38;;;1.00;;
51184;SDS011;37248;59.350;18.050;2022-10-23T16:05:28;3.87;;;1.30;;
51184;SDS011;37248;59.350;18.050;2022-10-23T16:07:54;12.80;;;1.87;;
51184;SDS011;37248;59.350;18.050;2022-10-23T16:10:19;9.83;;;1.73;;
51184;SDS011;37248;59.350;18.050;2022-10-23T16:12:45;16.05;;;1.85;;
51184;SDS011;37248;59.350;18.050;2022-10-23T16:15:10;11.40;;;2.27;;
51184;SDS011;37248;59.350;18.050;2022-10-23T16:17:35;16.27;;;2.37;;
51184;SDS011;37248;59.350;18.050;2022-10-23T16:20:03;16.70;;;2.23;;
51184;SDS011;37248;59.350;18.050;2022-10-23T16:22:28;16.38;;;2.22;;